»·PEaware :: N951TA KSBD-KEMT

N951TA :: KSBD-KEMT

FLIGHT INFORMATION

Flight Status: Arrived
Operator: Privately registered:
United States
More flights under this callsign
Pilot: John H. (7647)
Aircraft: CESSNA 172 SKYHAWK
(C172)
More flights by this aircraft type
Origin: KSBD San Bernardino Intl
United States
Destination: KEMT El Monte
United States
More flights between these airports :: More routes between these airports
Route: SB POM
File this flight plan on PilotEdge
Remarks: CAT-7
Altitude:
(Current/Filed)
4,500ft
Speed:
(Current/Filed)
120kts
Departed: 06-Jul-18 03:52 PM
Arrived: 06-Jul-18 04:23 PM
Distance/Time
Traveled:
40nm/0:31
Distance/Time
To Go:
Arrived

Flight Plot

Page will automatically refresh every two minutes.

Flight plan parsing failed; only flown route is shown


Map Options




Map Legend


Flown Route
Filed Route
Departure Airport
Arrival Airport
Navaid (VOR, NDB)
Fix

Horizontal Profiles

Position Reports

Time Latitude Longitude Heading Altitude Ground
Speed
06-Jul-18 15:38 34.105412 -117.242379 150 1107ft 0kts
06-Jul-18 15:39 34.102166 -117.224730 93 1146ft 0kts
06-Jul-18 15:40 34.102166 -117.224730 93 1146ft 0kts
06-Jul-18 15:41 34.102166 -117.224730 93 1146ft 0kts
06-Jul-18 15:42 34.102166 -117.224730 93 1146ft 0kts
06-Jul-18 15:43 34.102166 -117.224730 93 1146ft 0kts
06-Jul-18 15:44 34.102166 -117.224730 93 1146ft 0kts
06-Jul-18 15:45 34.102166 -117.224730 93 1146ft 0kts
06-Jul-18 15:46 34.102166 -117.224730 93 1146ft 0kts
06-Jul-18 15:47 34.102166 -117.224730 93 1146ft 0kts
06-Jul-18 15:48 34.102166 -117.224730 93 1146ft 0kts
06-Jul-18 15:49 34.101361 -117.224919 183 1145ft 11kts
06-Jul-18 15:50 34.100972 -117.221918 69 1152ft 10kts
06-Jul-18 15:51 34.100664 -117.219699 161 1159ft 0kts
06-Jul-18 15:52 34.100407 -117.219601 166 1159ft 10kts
06-Jul-18 15:53 34.095742 -117.232727 251 1196ft 69kts
06-Jul-18 15:54 34.088061 -117.256404 250 1771ft 80kts
06-Jul-18 15:55 34.079157 -117.280829 251 2370ft 81kts
06-Jul-18 15:56 34.077571 -117.309173 327 2512ft 107kts
06-Jul-18 15:57 34.104011 -117.319407 339 2909ft 86kts
06-Jul-18 15:58 34.115210 -117.333326 251 3528ft 70kts
06-Jul-18 15:59 34.111074 -117.355077 302 4112ft 68kts
06-Jul-18 16:00 34.117661 -117.376716 281 4517ft 88kts
06-Jul-18 16:01 34.121908 -117.410542 270 4495ft 104kts
06-Jul-18 16:02 34.118624 -117.442640 258 4473ft 91kts
06-Jul-18 16:03 34.115715 -117.471655 264 4474ft 85kts
06-Jul-18 16:04 34.114203 -117.499712 270 4475ft 83kts
06-Jul-18 16:05 34.117776 -117.527326 268 4475ft 83kts
06-Jul-18 16:06 34.111286 -117.554462 254 4474ft 88kts
06-Jul-18 16:07 34.108875 -117.584136 263 4489ft 89kts
06-Jul-18 16:08 34.105194 -117.613441 258 4540ft 90kts
06-Jul-18 16:09 34.100017 -117.644145 261 4545ft 95kts
06-Jul-18 16:10 34.095553 -117.673654 262 4507ft 102kts
06-Jul-18 16:11 34.090741 -117.706906 260 4504ft 101kts
06-Jul-18 16:12 34.084404 -117.739690 254 4504ft 100kts
06-Jul-18 16:13 34.077266 -117.771722 275 4501ft 100kts
06-Jul-18 16:14 34.080021 -117.805012 271 4495ft 100kts
06-Jul-18 16:15 34.081366 -117.838881 268 4188ft 103kts
06-Jul-18 16:16 34.081401 -117.872175 264 3588ft 99kts
06-Jul-18 16:17 34.082009 -117.900802 269 2893ft 78kts
06-Jul-18 16:18 34.084354 -117.925382 283 2177ft 76kts
06-Jul-18 16:19 34.097177 -117.946631 288 1488ft 84kts
06-Jul-18 16:20 34.108112 -117.971260 288 1113ft 70kts
06-Jul-18 16:21 34.114841 -117.991433 277 1187ft 65kts
06-Jul-18 16:22 34.115998 -118.013073 270 1315ft 64kts
06-Jul-18 16:23 34.101111 -118.026202 211 697ft 67kts
06-Jul-18 16:24 34.087477 -118.034025 206 289ft 24kts
06-Jul-18 16:25 34.084826 -118.034438 114 288ft 14kts
06-Jul-18 16:26 34.084474 -118.034354 302 288ft 0kts
06-Jul-18 16:27 34.084474 -118.034354 302 288ft 0kts
06-Jul-18 16:28 34.084474 -118.034354 302 288ft 0kts

Navigation Log

Ident Type
Flight plan parsing failed, navigation log unavailable